Time;durP1;ratioP1;P1;durP2;ratioP2;P2;SDS_P1;SDS_P2;PMS_P1;PMS_P2;Temp;Humidity;BMP_temperature;BMP_pressure;BME280_temperature;BME280_humidity;BME280_pressure;Samples;Min_cycle;Max_cycle;Signal;HPM_P1;HPM_P2
2021/09/03 00:01:24;;;;;;;;;;;14.10;99.90;;;;;;5095851;28;20385;-75
2021/09/03 00:03:50;;;;;;;;;;;14.10;99.90;;;;;;5094275;28;20357;-78
2021/09/03 00:06:16;;;;;;;;;;;14.10;99.90;;;;;;5094638;28;19946;-75
2021/09/03 00:08:41;;;;;;;;;;;14.00;99.90;;;;;;5086857;28;19912;-75
2021/09/03 00:11:07;;;;;;;;;;;14.00;99.90;;;;;;5094854;28;19973;-75
2021/09/03 00:13:32;;;;;;;;;;;14.00;99.90;;;;;;5091742;28;20326;-78
2021/09/03 00:15:58;;;;;;;;;;;13.90;99.90;;;;;;5092447;28;20310;-78
2021/09/03 00:18:24;;;;;;;;;;;14.00;99.90;;;;;;5094000;28;20200;-76
2021/09/03 00:20:49;;;;;;;;;;;14.00;99.90;;;;;;5093610;28;20006;-74
2021/09/03 00:23:16;;;;;;;;;;;13.90;99.90;;;;;;5092994;28;19919;-76
2021/09/03 00:25:42;;;;;;;;;;;13.90;99.90;;;;;;5076487;28;19920;-74
2021/09/03 00:28:07;;;;;;;;;;;13.80;99.90;;;;;;5094132;28;19912;-75
2021/09/03 00:30:33;;;;;;;;;;;13.80;99.90;;;;;;5094803;28;20342;-74
2021/09/03 00:32:58;;;;;;;;;;;13.70;99.90;;;;;;5075943;28;20026;-77
2021/09/03 00:35:24;;;;;;;;;;;13.70;99.90;;;;;;5076431;28;19929;-75
2021/09/03 00:37:49;;;;;;;;;;;13.70;99.90;;;;;;5094782;28;20276;-74
2021/09/03 00:40:15;;;;;;;;;;;13.70;99.90;;;;;;5074617;28;19916;-74
2021/09/03 00:42:41;;;;;;;;;;;13.70;99.90;;;;;;5082116;28;20014;-78
2021/09/03 00:45:06;;;;;;;;;;;13.70;99.90;;;;;;5093832;28;19938;-77
2021/09/03 00:47:32;;;;;;;;;;;13.60;99.90;;;;;;5094311;28;19916;-75
2021/09/03 00:49:57;;;;;;;;;;;13.60;99.90;;;;;;5094068;28;19916;-76
2021/09/03 00:52:24;;;;;;;;;;;13.60;99.90;;;;;;5075885;28;20231;-77
2021/09/03 00:54:51;;;;;;;;;;;13.60;99.90;;;;;;5093988;28;19985;-74
2021/09/03 00:57:17;;;;;;;;;;;13.60;99.90;;;;;;5098473;28;20355;-76
2021/09/03 00:59:42;;;;;;;;;;;13.60;99.90;;;;;;5099682;28;20011;-74
2021/09/03 01:02:08;;;;;;;;;;;13.60;99.90;;;;;;5101178;28;19987;-78
2021/09/03 01:04:33;;;;;;;;;;;13.60;99.90;;;;;;5098904;28;19912;-75
2021/09/03 01:06:59;;;;;;;;;;;13.60;99.90;;;;;;5099881;28;19923;-78
2021/09/03 01:09:25;;;;;;;;;;;13.60;99.90;;;;;;5081400;28;19912;-77
2021/09/03 01:11:50;;;;;;;;;;;13.60;99.90;;;;;;5081162;28;19931;-77
2021/09/03 01:14:17;;;;;;;;;;;13.50;99.90;;;;;;5097780;28;19912;-76
2021/09/03 01:16:43;;;;;;;;;;;13.50;99.90;;;;;;5100811;28;19962;-76
2021/09/03 01:19:08;;;;;;;;;;;13.50;99.90;;;;;;5097838;28;19952;-74
2021/09/03 01:21:34;;;;;;;;;;;13.40;99.90;;;;;;5093160;28;19922;-75
2021/09/03 01:23:59;;;;;;;;;;;13.40;99.90;;;;;;5100265;28;20265;-74
2021/09/03 01:26:26;;;;;;;;;;;13.40;99.90;;;;;;5104506;28;20299;-80
2021/09/03 01:28:51;;;;;;;;;;;13.40;99.90;;;;;;5099876;28;19962;-74
2021/09/03 01:31:17;;;;;;;;;;;13.40;99.90;;;;;;5097560;28;19924;-74
2021/09/03 01:33:43;;;;;;;;;;;13.40;99.90;;;;;;5098762;28;19916;-78
2021/09/03 01:36:08;;;;;;;;;;;13.40;99.90;;;;;;5100066;28;19908;-76
2021/09/03 01:38:34;;;;;;;;;;;13.40;99.90;;;;;;5098542;28;19920;-79
2021/09/03 01:41:00;;;;;;;;;;;13.30;99.90;;;;;;5079486;28;19965;-78
2021/09/03 01:43:25;;;;;;;;;;;13.40;99.90;;;;;;5081555;28;19966;-75
2021/09/03 01:45:52;;;;;;;;;;;13.30;99.90;;;;;;5099167;28;19916;-77
2021/09/03 01:48:18;;;;;;;;;;;13.30;99.90;;;;;;5100212;28;20361;-76
2021/09/03 01:50:44;;;;;;;;;;;13.30;99.90;;;;;;5099933;28;19920;-74
2021/09/03 01:53:09;;;;;;;;;;;13.30;99.90;;;;;;5099586;28;20257;-74
2021/09/03 01:55:35;;;;;;;;;;;13.30;99.90;;;;;;5094145;28;20326;-77
2021/09/03 01:58:02;;;;;;;;;;;13.30;99.90;;;;;;5082311;28;20189;-75
2021/09/03 02:00:28;;;;;;;;;;;13.30;99.90;;;;;;5096042;28;19926;-75
2021/09/03 02:02:54;;;;;;;;;;;13.30;99.90;;;;;;5100008;28;19916;-79
2021/09/03 02:05:19;;;;;;;;;;;13.30;99.90;;;;;;5100169;28;19954;-75
2021/09/03 02:07:45;;;;;;;;;;;13.40;99.90;;;;;;5086166;28;19917;-74
2021/09/03 02:10:11;;;;;;;;;;;13.40;99.90;;;;;;5096188;28;19924;-77
2021/09/03 02:12:36;;;;;;;;;;;13.30;99.90;;;;;;5096441;28;19966;-74
2021/09/03 02:15:02;;;;;;;;;;;13.30;99.90;;;;;;5084062;28;19909;-74
2021/09/03 02:17:28;;;;;;;;;;;13.30;99.90;;;;;;5077387;28;20283;-74
2021/09/03 02:19:53;;;;;;;;;;;13.30;99.90;;;;;;5095118;28;19916;-75
2021/09/03 02:22:19;;;;;;;;;;;13.30;99.90;;;;;;5097445;28;19916;-76
2021/09/03 02:24:44;;;;;;;;;;;13.20;99.90;;;;;;5076295;28;19912;-74
2021/09/03 02:27:10;;;;;;;;;;;13.30;99.90;;;;;;5071617;28;19908;-76
2021/09/03 02:29:36;;;;;;;;;;;13.20;99.90;;;;;;5096240;28;19912;-78
2021/09/03 02:32:01;;;;;;;;;;;13.20;99.90;;;;;;5095302;28;19922;-75
2021/09/03 02:34:27;;;;;;;;;;;13.20;99.90;;;;;;5091377;28;19908;-78
2021/09/03 02:36:52;;;;;;;;;;;13.20;99.90;;;;;;5092559;28;20004;-74
2021/09/03 02:39:18;;;;;;;;;;;13.20;99.90;;;;;;5087248;28;19958;-74
2021/09/03 02:41:43;;;;;;;;;;;13.10;99.90;;;;;;5092349;28;19912;-74
2021/09/03 02:44:09;;;;;;;;;;;13.10;99.90;;;;;;5093926;28;21423;-77
2021/09/03 02:46:35;;;;;;;;;;;13.10;99.90;;;;;;5096443;28;19912;-79
2021/09/03 02:49:01;;;;;;;;;;;13.10;99.90;;;;;;5096297;28;19923;-75
2021/09/03 02:51:26;;;;;;;;;;;13.00;99.90;;;;;;5096139;28;19922;-74
2021/09/03 02:53:52;;;;;;;;;;;13.10;99.90;;;;;;5096098;28;19916;-75
2021/09/03 02:56:17;;;;;;;;;;;13.10;99.90;;;;;;5095193;28;19973;-76
2021/09/03 02:58:43;;;;;;;;;;;13.00;99.90;;;;;;5096406;28;20288;-78
2021/09/03 03:01:08;;;;;;;;;;;13.10;99.90;;;;;;5095995;28;19919;-78
2021/09/03 03:03:34;;;;;;;;;;;13.10;99.90;;;;;;5082611;28;19916;-74
2021/09/03 03:06:00;;;;;;;;;;;13.10;99.90;;;;;;5080313;28;20098;-79
2021/09/03 03:08:25;;;;;;;;;;;13.10;99.90;;;;;;5080435;28;19923;-78
2021/09/03 03:10:51;;;;;;;;;;;13.00;99.90;;;;;;5085376;28;19931;-76
2021/09/03 03:13:21;;;;;;;;;;;13.10;99.90;;;;;;5088611;28;19913;-77
2021/09/03 03:15:47;;;;;;;;;;;13.00;99.90;;;;;;5064939;28;20372;-75
2021/09/03 03:18:13;;;;;;;;;;;13.10;99.90;;;;;;5085753;28;19954;-75
2021/09/03 03:20:38;;;;;;;;;;;13.10;99.90;;;;;;5070731;28;19959;-75
2021/09/03 03:23:04;;;;;;;;;;;13.10;99.90;;;;;;5086618;28;19916;-75
2021/09/03 03:25:29;;;;;;;;;;;13.10;99.90;;;;;;5086556;28;19960;-74
2021/09/03 03:27:55;;;;;;;;;;;13.00;99.90;;;;;;5081674;28;20418;-75
2021/09/03 03:30:21;;;;;;;;;;;13.00;99.90;;;;;;5080173;28;19924;-75
2021/09/03 03:32:46;;;;;;;;;;;13.10;99.90;;;;;;5093048;28;19920;-75
2021/09/03 03:35:12;;;;;;;;;;;13.10;99.90;;;;;;5095514;28;19912;-75
2021/09/03 03:37:38;;;;;;;;;;;13.10;99.90;;;;;;5077070;28;19912;-77
2021/09/03 03:40:03;;;;;;;;;;;13.10;99.90;;;;;;5079657;28;19908;-75
2021/09/03 03:42:29;;;;;;;;;;;13.10;99.90;;;;;;5085487;28;20004;-77
2021/09/03 03:44:54;;;;;;;;;;;13.10;99.90;;;;;;5073207;28;19919;-77
2021/09/03 03:47:20;;;;;;;;;;;13.00;99.90;;;;;;5088869;28;19995;-75
2021/09/03 03:49:46;;;;;;;;;;;13.10;99.90;;;;;;5095159;28;19920;-74
2021/09/03 03:52:11;;;;;;;;;;;13.10;99.90;;;;;;5095121;28;20218;-75
2021/09/03 03:54:37;;;;;;;;;;;13.10;99.90;;;;;;5099579;28;20291;-74
2021/09/03 03:57:02;;;;;;;;;;;13.10;99.90;;;;;;5077486;28;19908;-75
2021/09/03 03:59:28;;;;;;;;;;;13.00;99.90;;;;;;5093928;28;19916;-75
2021/09/03 04:01:54;;;;;;;;;;;13.10;99.90;;;;;;5095146;28;19916;-76
2021/09/03 04:04:19;;;;;;;;;;;13.00;99.90;;;;;;5095134;28;19912;-74
2021/09/03 04:06:45;;;;;;;;;;;13.00;99.90;;;;;;5094381;28;20369;-75
2021/09/03 04:09:10;;;;;;;;;;;13.00;99.90;;;;;;5094194;28;20226;-74
2021/09/03 04:11:36;;;;;;;;;;;13.00;99.90;;;;;;5094212;28;19985;-75
2021/09/03 04:14:02;;;;;;;;;;;13.00;99.90;;;;;;5074999;28;19959;-76
2021/09/03 04:16:27;;;;;;;;;;;13.00;99.90;;;;;;5087452;28;19956;-75
2021/09/03 04:18:54;;;;;;;;;;;13.00;99.90;;;;;;5094014;28;20310;-74
2021/09/03 04:21:19;;;;;;;;;;;12.90;99.90;;;;;;5093430;28;20330;-77
2021/09/03 04:23:45;;;;;;;;;;;12.90;99.90;;;;;;5074266;28;19955;-74
2021/09/03 04:26:10;;;;;;;;;;;12.90;99.90;;;;;;5092601;28;19943;-74
2021/09/03 04:28:36;;;;;;;;;;;12.90;99.90;;;;;;5075392;28;20028;-75
2021/09/03 04:31:01;;;;;;;;;;;12.90;99.90;;;;;;5093529;28;20386;-75
2021/09/03 04:33:27;;;;;;;;;;;12.90;99.90;;;;;;5075650;28;19998;-75
2021/09/03 04:35:52;;;;;;;;;;;12.80;99.90;;;;;;5092680;28;19912;-75
2021/09/03 04:38:18;;;;;;;;;;;12.90;99.90;;;;;;5089232;28;20462;-75
2021/09/03 04:40:44;;;;;;;;;;;12.80;99.90;;;;;;5091641;28;19916;-75
2021/09/03 04:43:09;;;;;;;;;;;12.80;99.90;;;;;;5093158;28;20227;-77
2021/09/03 04:45:35;;;;;;;;;;;12.90;99.90;;;;;;5075833;28;19912;-74
2021/09/03 04:48:01;;;;;;;;;;;12.90;99.90;;;;;;5076295;28;19957;-74
2021/09/03 04:50:26;;;;;;;;;;;12.90;99.90;;;;;;5084779;28;19924;-78
2021/09/03 04:52:52;;;;;;;;;;;12.90;99.90;;;;;;5094293;28;19909;-76
2021/09/03 04:55:17;;;;;;;;;;;12.90;99.90;;;;;;5075740;28;19916;-76
2021/09/03 04:57:43;;;;;;;;;;;12.90;99.90;;;;;;5076058;28;19916;-77
2021/09/03 05:00:11;;;;;;;;;;;12.80;99.90;;;;;;5072234;28;19917;-74
2021/09/03 05:02:36;;;;;;;;;;;12.80;99.90;;;;;;5060631;28;19913;-75
2021/09/03 05:05:03;;;;;;;;;;;12.80;99.90;;;;;;5060921;28;19939;-74
2021/09/03 05:07:28;;;;;;;;;;;12.80;99.90;;;;;;5073080;28;20234;-76
2021/09/03 05:09:54;;;;;;;;;;;12.80;99.90;;;;;;5073191;28;19917;-74
2021/09/03 05:12:19;;;;;;;;;;;12.90;99.90;;;;;;5068363;28;21251;-75
2021/09/03 05:14:45;;;;;;;;;;;12.90;99.90;;;;;;5067463;28;19935;-74
2021/09/03 05:17:11;;;;;;;;;;;12.90;99.90;;;;;;5071051;28;19912;-78
2021/09/03 05:19:36;;;;;;;;;;;12.90;99.90;;;;;;5079582;28;19916;-74
2021/09/03 05:22:02;;;;;;;;;;;12.80;99.90;;;;;;5063887;28;19912;-74
2021/09/03 05:24:27;;;;;;;;;;;12.80;99.90;;;;;;5064716;28;19928;-76
2021/09/03 05:26:53;;;;;;;;;;;12.80;99.90;;;;;;5070811;28;19962;-74
2021/09/03 05:29:18;;;;;;;;;;;12.80;99.90;;;;;;5066303;28;19920;-75
2021/09/03 05:31:44;;;;;;;;;;;12.90;99.90;;;;;;5067897;28;19965;-77
2021/09/03 05:34:09;;;;;;;;;;;12.90;99.90;;;;;;5071547;28;19912;-75
2021/09/03 05:36:35;;;;;;;;;;;12.90;99.90;;;;;;5071614;28;19912;-77
2021/09/03 05:39:00;;;;;;;;;;;12.80;99.90;;;;;;5066324;28;20412;-75
2021/09/03 05:41:26;;;;;;;;;;;12.90;99.90;;;;;;5072248;28;20290;-75
2021/09/03 05:43:52;;;;;;;;;;;12.90;99.90;;;;;;5075301;28;19912;-75
2021/09/03 05:46:17;;;;;;;;;;;12.80;99.90;;;;;;5074167;28;19916;-76
2021/09/03 05:48:43;;;;;;;;;;;12.80;99.90;;;;;;5070815;28;19920;-75
2021/09/03 05:51:08;;;;;;;;;;;12.90;99.90;;;;;;5069725;28;19917;-75
2021/09/03 05:53:34;;;;;;;;;;;12.90;99.90;;;;;;5069471;28;19916;-76
2021/09/03 05:55:59;;;;;;;;;;;13.00;99.90;;;;;;5072731;28;19973;-78
2021/09/03 05:58:25;;;;;;;;;;;13.10;99.90;;;;;;5062943;28;19912;-78
2021/09/03 06:00:50;;;;;;;;;;;13.20;99.90;;;;;;5053319;28;20012;-78
2021/09/03 06:03:16;;;;;;;;;;;13.30;99.90;;;;;;5049250;28;20349;-75
2021/09/03 06:05:41;;;;;;;;;;;13.40;99.90;;;;;;5053514;28;20262;-77
2021/09/03 06:08:07;;;;;;;;;;;13.50;99.90;;;;;;5053941;28;19920;-74
2021/09/03 06:10:33;;;;;;;;;;;13.50;99.90;;;;;;5054207;28;19943;-77
2021/09/03 06:12:58;;;;;;;;;;;13.60;99.90;;;;;;5054210;28;19981;-77
2021/09/03 06:15:24;;;;;;;;;;;13.60;99.90;;;;;;5051408;28;19916;-78
2021/09/03 06:17:49;;;;;;;;;;;13.60;99.90;;;;;;5043294;28;19921;-78
2021/09/03 06:20:15;;;;;;;;;;;13.70;99.90;;;;;;5040430;28;19917;-77
2021/09/03 06:22:41;;;;;;;;;;;13.70;99.90;;;;;;5049564;28;20253;-75
2021/09/03 06:25:07;;;;;;;;;;;13.70;99.90;;;;;;5044194;28;19910;-76
2021/09/03 06:27:33;;;;;;;;;;;13.80;99.90;;;;;;5051579;28;20042;-75
2021/09/03 06:29:59;;;;;;;;;;;13.90;99.90;;;;;;5054278;28;20007;-74
2021/09/03 06:32:26;;;;;;;;;;;13.90;99.90;;;;;;5052884;28;19929;-76
2021/09/03 06:34:58;;;;;;;;;;;14.00;99.90;;;;;;5051940;28;19970;-79
2021/09/03 06:37:24;;;;;;;;;;;14.00;99.90;;;;;;5048500;28;19909;-75
2021/09/03 06:39:49;;;;;;;;;;;14.10;99.90;;;;;;5055517;28;19919;-74
2021/09/03 06:42:15;;;;;;;;;;;14.10;99.90;;;;;;5054770;28;19920;-76
2021/09/03 06:44:41;;;;;;;;;;;14.20;99.90;;;;;;5053094;28;19924;-75
2021/09/03 06:47:07;;;;;;;;;;;14.30;99.90;;;;;;5054401;28;19913;-78
2021/09/03 06:49:33;;;;;;;;;;;14.30;99.90;;;;;;5051704;28;19913;-75
2021/09/03 06:51:59;;;;;;;;;;;14.40;99.90;;;;;;5051455;28;19931;-74
2021/09/03 06:54:25;;;;;;;;;;;14.50;99.90;;;;;;5048405;28;19920;-76
2021/09/03 06:56:51;;;;;;;;;;;14.60;99.90;;;;;;5053596;28;19921;-76
2021/09/03 06:59:16;;;;;;;;;;;14.70;99.90;;;;;;5061336;28;19912;-78
2021/09/03 07:01:42;;;;;;;;;;;14.80;99.90;;;;;;5071055;28;19916;-77
2021/09/03 07:04:07;;;;;;;;;;;15.00;99.90;;;;;;5073095;28;19916;-78
2021/09/03 07:06:33;;;;;;;;;;;15.10;99.90;;;;;;5087677;28;19935;-75
2021/09/03 07:08:59;;;;;;;;;;;15.20;99.90;;;;;;5087440;28;20019;-78
2021/09/03 07:11:25;;;;;;;;;;;15.30;99.90;;;;;;5068658;28;19973;-75
2021/09/03 07:13:50;;;;;;;;;;;15.50;99.90;;;;;;5086773;28;19916;-75
2021/09/03 07:16:16;;;;;;;;;;;15.60;99.90;;;;;;5087986;28;20012;-78
2021/09/03 07:18:41;;;;;;;;;;;15.80;99.90;;;;;;5089178;28;20235;-74
2021/09/03 07:21:07;;;;;;;;;;;15.90;99.90;;;;;;5085077;28;19959;-78
2021/09/03 07:23:33;;;;;;;;;;;16.00;99.90;;;;;;5067853;28;19918;-78
2021/09/03 07:26:00;;;;;;;;;;;16.20;99.90;;;;;;5070039;28;20011;-79
2021/09/03 07:28:26;;;;;;;;;;;16.40;99.90;;;;;;5092694;28;19913;-79
2021/09/03 07:30:52;;;;;;;;;;;16.50;99.90;;;;;;5092659;28;19920;-79
2021/09/03 07:33:17;;;;;;;;;;;16.50;99.90;;;;;;5096290;28;19908;-75
2021/09/03 07:35:45;;;;;;;;;;;16.70;99.90;;;;;;5074897;28;19954;-75
2021/09/03 07:38:10;;;;;;;;;;;16.80;99.90;;;;;;5093092;28;19912;-75
2021/09/03 07:40:36;;;;;;;;;;;16.90;99.90;;;;;;5075731;28;19913;-77
2021/09/03 07:43:08;;;;;;;;;;;16.90;99.90;;;;;;5076832;28;19938;-77
2021/09/03 07:45:34;;;;;;;;;;;17.00;99.90;;;;;;5095642;28;20322;-77
2021/09/03 07:47:59;;;;;;;;;;;17.00;99.90;;;;;;5075061;28;19916;-75
2021/09/03 07:50:25;;;;;;;;;;;17.20;99.90;;;;;;5077128;28;19998;-79
2021/09/03 07:52:51;;;;;;;;;;;17.40;99.90;;;;;;5094483;28;20295;-75
2021/09/03 07:55:16;;;;;;;;;;;17.40;99.90;;;;;;5093091;28;19908;-78
2021/09/03 07:57:42;;;;;;;;;;;17.50;99.90;;;;;;5087603;28;19921;-75
2021/09/03 08:00:08;;;;;;;;;;;17.50;99.90;;;;;;5077003;28;19954;-79
2021/09/03 08:02:33;;;;;;;;;;;17.50;99.90;;;;;;5093190;28;19912;-78
2021/09/03 08:04:59;;;;;;;;;;;17.50;99.90;;;;;;5070319;28;19927;-79
2021/09/03 08:07:27;;;;;;;;;;;17.60;99.90;;;;;;5085107;28;20294;-78
2021/09/03 08:09:53;;;;;;;;;;;17.70;99.90;;;;;;5069599;28;20299;-78
2021/09/03 08:12:19;;;;;;;;;;;17.90;99.90;;;;;;5071364;28;19924;-76
2021/09/03 08:14:44;;;;;;;;;;;18.00;99.90;;;;;;5087142;28;19955;-76
2021/09/03 08:17:10;;;;;;;;;;;18.10;99.90;;;;;;5086889;28;19912;-77
2021/09/03 08:19:35;;;;;;;;;;;18.20;99.90;;;;;;5084841;28;19919;-78
2021/09/03 08:22:01;;;;;;;;;;;18.20;99.90;;;;;;5085230;28;20025;-77
2021/09/03 08:24:27;;;;;;;;;;;18.30;99.90;;;;;;5070102;28;19920;-78
2021/09/03 08:26:52;;;;;;;;;;;18.40;99.90;;;;;;5086564;28;19923;-74
2021/09/03 08:29:18;;;;;;;;;;;18.40;99.90;;;;;;5085199;28;20303;-79
2021/09/03 08:31:44;;;;;;;;;;;18.50;99.90;;;;;;5087071;28;19926;-79
2021/09/03 08:34:09;;;;;;;;;;;18.50;99.90;;;;;;5086652;28;19919;-79
2021/09/03 08:36:35;;;;;;;;;;;18.50;99.90;;;;;;5065804;28;20313;-79
2021/09/03 08:39:00;;;;;;;;;;;18.50;99.90;;;;;;5068391;28;19916;-78
2021/09/03 08:41:26;;;;;;;;;;;18.60;99.90;;;;;;5089904;28;20006;-79
2021/09/03 08:43:57;;;;;;;;;;;18.60;99.90;;;;;;5087418;28;19917;-78
2021/09/03 08:46:30;;;;;;;;;;;18.70;99.90;;;;;;5085178;28;19912;-76
2021/09/03 08:48:56;;;;;;;;;;;18.80;99.90;;;;;;5090277;28;19981;-79
2021/09/03 08:51:21;;;;;;;;;;;18.90;99.90;;;;;;5070087;28;20311;-79
2021/09/03 08:53:47;;;;;;;;;;;19.20;99.90;;;;;;5084891;28;19916;-79
2021/09/03 08:56:13;;;;;;;;;;;19.30;99.90;;;;;;5068623;28;19913;-78
2021/09/03 08:58:39;;;;;;;;;;;19.40;99.90;;;;;;5067433;28;19920;-78
2021/09/03 09:01:12;;;;;;;;;;;19.40;99.90;;;;;;5087060;28;19965;-76
2021/09/03 09:03:42;;;;;;;;;;;19.40;99.90;;;;;;5083595;28;19912;-79
2021/09/03 09:06:08;;;;;;;;;;;19.40;99.90;;;;;;5093421;28;19908;-80
2021/09/03 09:08:34;;;;;;;;;;;19.40;99.90;;;;;;5076333;28;19933;-80
2021/09/03 09:11:00;;;;;;;;;;;19.40;99.90;;;;;;5070302;28;19947;-77
2021/09/03 09:13:27;;;;;;;;;;;19.40;99.90;;;;;;5083596;28;20299;-80
2021/09/03 09:16:00;;;;;;;;;;;19.40;99.90;;;;;;5068954;28;19912;-78
2021/09/03 09:18:36;;;;;;;;;;;19.50;99.90;;;;;;5087508;28;20053;-75
2021/09/03 09:21:06;;;;;;;;;;;19.50;99.90;;;;;;5077527;28;19924;-75
2021/09/03 09:23:39;;;;;;;;;;;19.60;99.90;;;;;;5090152;28;19912;-80
2021/09/03 09:26:04;;;;;;;;;;;19.60;99.90;;;;;;5092518;28;19916;-80
2021/09/03 09:28:33;;;;;;;;;;;19.60;99.90;;;;;;5074383;28;19996;-80
2021/09/03 09:30:59;;;;;;;;;;;19.70;99.90;;;;;;5092323;28;20020;-80
2021/09/03 09:33:24;;;;;;;;;;;19.60;99.90;;;;;;5090510;28;19962;-79
2021/09/03 09:35:51;;;;;;;;;;;19.60;99.90;;;;;;5092490;28;19916;-80
2021/09/03 09:38:17;;;;;;;;;;;19.70;99.90;;;;;;5075474;28;20313;-80
2021/09/03 09:40:49;;;;;;;;;;;19.80;99.90;;;;;;5071467;28;19916;-81
2021/09/03 09:43:21;;;;;;;;;;;19.70;99.90;;;;;;5074778;28;19923;-81
2021/09/03 09:45:56;;;;;;;;;;;19.80;99.90;;;;;;5090872;28;19969;-79
2021/09/03 09:48:22;;;;;;;;;;;19.80;99.90;;;;;;5087181;28;19923;-75
2021/09/03 09:50:47;;;;;;;;;;;19.80;99.90;;;;;;5078412;28;19916;-77
2021/09/03 09:53:14;;;;;;;;;;;19.80;99.90;;;;;;5087877;28;19912;-78
2021/09/03 09:55:40;;;;;;;;;;;20.00;99.90;;;;;;5083775;28;19935;-81
2021/09/03 09:58:06;;;;;;;;;;;20.00;99.90;;;;;;5091123;28;19916;-75
2021/09/03 10:00:35;;;;;;;;;;;20.00;99.90;;;;;;5085867;28;20429;-76
2021/09/03 10:03:01;;;;;;;;;;;20.00;99.90;;;;;;5067994;28;19916;-81
2021/09/03 10:05:27;;;;;;;;;;;20.00;99.90;;;;;;5070215;28;19920;-81
2021/09/03 10:07:53;;;;;;;;;;;20.00;99.90;;;;;;5088391;28;20192;-80
2021/09/03 10:10:18;;;;;;;;;;;20.10;99.90;;;;;;5077745;28;19916;-80
2021/09/03 10:12:44;;;;;;;;;;;20.20;99.90;;;;;;5067373;28;19990;-79
2021/09/03 10:15:10;;;;;;;;;;;20.30;99.90;;;;;;5069072;28;19935;-81
2021/09/03 10:17:36;;;;;;;;;;;20.40;99.90;;;;;;5087567;28;20261;-80
2021/09/03 10:20:01;;;;;;;;;;;20.30;99.90;;;;;;5087330;28;20007;-80
2021/09/03 10:22:40;;;;;;;;;;;20.30;99.90;;;;;;5090529;28;20323;-82
2021/09/03 10:25:06;;;;;;;;;;;20.20;99.90;;;;;;5087231;28;19916;-80
2021/09/03 10:27:32;;;;;;;;;;;20.20;99.90;;;;;;5087137;28;19920;-77
2021/09/03 10:30:10;;;;;;;;;;;20.20;99.90;;;;;;5083965;28;20648;-81
2021/09/03 10:32:36;;;;;;;;;;;20.10;99.90;;;;;;5085035;28;19920;-82
2021/09/03 10:35:03;;;;;;;;;;;20.00;99.90;;;;;;5088524;28;20307;-79
2021/09/03 10:37:33;;;;;;;;;;;20.00;99.90;;;;;;5083614;28;19920;-82
2021/09/03 10:40:10;;;;;;;;;;;19.90;99.90;;;;;;5083796;28;20025;-80
2021/09/03 10:45:17;;;;;;;;;;;20.00;99.90;;;;;;5089314;28;19924;-76
2021/09/03 10:47:46;;;;;;;;;;;20.00;99.90;;;;;;5072814;28;20317;-79
2021/09/03 10:50:20;;;;;;;;;;;19.90;99.90;;;;;;5087372;28;19959;-77
2021/09/03 10:53:10;;;;;;;;;;;19.90;99.90;;;;;;5090847;28;19916;-81
2021/09/03 10:55:48;;;;;;;;;;;20.00;99.90;;;;;;5073686;28;19912;-80
2021/09/03 10:58:32;;;;;;;;;;;20.10;99.90;;;;;;5070245;28;19920;-76
2021/09/03 11:01:10;;;;;;;;;;;20.00;99.90;;;;;;5074544;28;19927;-80
2021/09/03 11:03:43;;;;;;;;;;;19.80;99.90;;;;;;5085354;28;19908;-82
2021/09/03 11:06:11;;;;;;;;;;;19.80;99.90;;;;;;5076927;28;19912;-81
2021/09/03 11:08:41;;;;;;;;;;;19.70;99.90;;;;;;5077391;28;20429;-81
2021/09/03 11:11:23;;;;;;;;;;;19.60;99.90;;;;;;5095594;28;19922;-81
2021/09/03 11:13:49;;;;;;;;;;;19.50;99.90;;;;;;5084044;28;19912;-83
2021/09/03 11:16:35;;;;;;;;;;;19.30;99.90;;;;;;5087834;28;19974;-80
2021/09/03 11:19:08;;;;;;;;;;;19.30;99.90;;;;;;5096059;28;19912;-78
2021/09/03 11:21:42;;;;;;;;;;;19.30;99.90;;;;;;5077495;28;19912;-80
2021/09/03 11:24:08;;;;;;;;;;;19.30;99.90;;;;;;5080306;28;19990;-82
2021/09/03 11:26:35;;;;;;;;;;;19.40;99.90;;;;;;5086186;28;20631;-80
2021/09/03 11:29:05;;;;;;;;;;;19.50;99.90;;;;;;5072907;28;20321;-78
2021/09/03 11:31:33;;;;;;;;;;;19.60;99.90;;;;;;5092543;28;19927;-80
2021/09/03 11:34:04;;;;;;;;;;;19.60;99.90;;;;;;5092815;28;19920;-79
2021/09/03 11:36:43;;;;;;;;;;;19.60;99.90;;;;;;5081124;28;20600;-80
2021/09/03 11:39:13;;;;;;;;;;;19.50;99.90;;;;;;5084099;28;19916;-78
2021/09/03 11:41:46;;;;;;;;;;;19.40;99.90;;;;;;5085537;28;19916;-79
2021/09/03 11:44:11;;;;;;;;;;;19.50;99.90;;;;;;5084856;28;19988;-80
2021/09/03 11:46:37;;;;;;;;;;;19.50;99.90;;;;;;5083551;28;19917;-78
2021/09/03 11:49:02;;;;;;;;;;;19.50;99.90;;;;;;5083021;28;20330;-76
2021/09/03 11:51:28;;;;;;;;;;;19.60;99.90;;;;;;5066180;28;20235;-77
2021/09/03 11:53:59;;;;;;;;;;;19.70;99.90;;;;;;5084586;28;19920;-79
2021/09/03 11:56:25;;;;;;;;;;;19.70;99.90;;;;;;5068428;28;19920;-77
2021/09/03 11:58:51;;;;;;;;;;;19.70;99.90;;;;;;5086709;28;19916;-81
2021/09/03 12:01:20;;;;;;;;;;;19.50;99.90;;;;;;5084203;28;19924;-81
2021/09/03 12:03:47;;;;;;;;;;;19.50;99.90;;;;;;5064385;28;19926;-75
2021/09/03 12:06:15;;;;;;;;;;;19.40;99.90;;;;;;5085310;28;19928;-81
2021/09/03 12:08:41;;;;;;;;;;;19.30;99.90;;;;;;5084189;28;20023;-78
2021/09/03 12:11:11;;;;;;;;;;;19.30;99.90;;;;;;5068224;28;19924;-78
2021/09/03 12:13:40;;;;;;;;;;;19.30;99.90;;;;;;5085113;28;20214;-80
2021/09/03 12:16:07;;;;;;;;;;;19.30;99.90;;;;;;5084184;28;19920;-75
2021/09/03 12:18:34;;;;;;;;;;;19.30;99.90;;;;;;5085817;28;19923;-77
2021/09/03 12:21:01;;;;;;;;;;;19.30;99.90;;;;;;5085424;28;19920;-80
2021/09/03 12:23:30;;;;;;;;;;;19.30;99.90;;;;;;5085190;28;19916;-76
2021/09/03 12:26:08;;;;;;;;;;;19.40;99.90;;;;;;5082770;28;20006;-75
2021/09/03 12:28:34;;;;;;;;;;;19.30;99.90;;;;;;5086902;28;19915;-81
2021/09/03 12:31:04;;;;;;;;;;;19.30;99.90;;;;;;5084502;28;20062;-79
2021/09/03 12:33:30;;;;;;;;;;;19.30;99.90;;;;;;5085728;28;20335;-77
2021/09/03 12:35:57;;;;;;;;;;;19.30;99.90;;;;;;5083998;28;19920;-78
2021/09/03 12:38:30;;;;;;;;;;;19.30;99.90;;;;;;5066771;28;19990;-79
2021/09/03 12:41:06;;;;;;;;;;;19.30;99.90;;;;;;5082950;28;20276;-76
2021/09/03 12:43:32;;;;;;;;;;;19.20;99.90;;;;;;5063412;28;20327;-78
2021/09/03 12:45:57;;;;;;;;;;;19.30;99.90;;;;;;5082646;28;19920;-81
2021/09/03 12:48:23;;;;;;;;;;;19.20;99.90;;;;;;5080526;28;20319;-75
2021/09/03 12:50:49;;;;;;;;;;;19.30;99.90;;;;;;5084440;28;19920;-82
2021/09/03 12:53:18;;;;;;;;;;;19.20;99.90;;;;;;5082525;28;19924;-75
2021/09/03 12:55:43;;;;;;;;;;;19.30;99.90;;;;;;5066269;28;19923;-77
2021/09/03 12:58:09;;;;;;;;;;;19.30;99.90;;;;;;5084990;28;19920;-77
2021/09/03 13:00:35;;;;;;;;;;;19.20;99.90;;;;;;5085297;28;19927;-79
2021/09/03 13:03:01;;;;;;;;;;;19.20;99.90;;;;;;5087342;28;19921;-82
2021/09/03 13:05:26;;;;;;;;;;;19.30;99.90;;;;;;5068876;28;20211;-82
2021/09/03 13:07:52;;;;;;;;;;;19.40;99.90;;;;;;5067405;28;20315;-76
2021/09/03 13:10:18;;;;;;;;;;;19.40;99.90;;;;;;5067384;28;21171;-78
2021/09/03 13:12:44;;;;;;;;;;;19.40;99.90;;;;;;5088984;28;19916;-81
2021/09/03 13:15:10;;;;;;;;;;;19.30;99.90;;;;;;5068735;28;20307;-80
2021/09/03 13:17:36;;;;;;;;;;;19.40;99.90;;;;;;5089529;28;19938;-78
2021/09/03 13:20:02;;;;;;;;;;;19.40;99.90;;;;;;5066928;28;20620;-80
2021/09/03 13:22:27;;;;;;;;;;;19.30;99.90;;;;;;5086427;28;20012;-75
2021/09/03 13:24:53;;;;;;;;;;;19.30;99.90;;;;;;5088443;28;19916;-81
2021/09/03 13:27:18;;;;;;;;;;;19.40;99.90;;;;;;5068376;28;19920;-78
2021/09/03 13:29:44;;;;;;;;;;;19.30;99.90;;;;;;5086578;28;20226;-82
2021/09/03 13:32:09;;;;;;;;;;;19.40;99.90;;;;;;5083659;28;19974;-80
2021/09/03 13:34:35;;;;;;;;;;;19.40;99.90;;;;;;5084513;28;19925;-79
2021/09/03 13:37:01;;;;;;;;;;;19.50;99.90;;;;;;5085560;28;19917;-77
2021/09/03 13:39:26;;;;;;;;;;;19.50;99.90;;;;;;5085903;28;19920;-76
2021/09/03 13:41:52;;;;;;;;;;;19.50;99.90;;;;;;5086261;28;19920;-77
2021/09/03 13:44:18;;;;;;;;;;;19.50;99.90;;;;;;5068708;28;19916;-79
2021/09/03 13:46:44;;;;;;;;;;;19.50;99.90;;;;;;5085581;28;19912;-82
2021/09/03 13:49:09;;;;;;;;;;;19.50;99.90;;;;;;5082949;28;19924;-82
2021/09/03 13:51:35;;;;;;;;;;;19.50;99.90;;;;;;5069196;28;19920;-82
2021/09/03 13:54:01;;;;;;;;;;;19.50;99.90;;;;;;5082582;28;19979;-76
2021/09/03 13:56:27;;;;;;;;;;;19.60;99.90;;;;;;5083648;28;19927;-84
2021/09/03 13:58:52;;;;;;;;;;;19.60;99.90;;;;;;5086052;28;19922;-76
2021/09/03 14:01:18;;;;;;;;;;;19.60;99.90;;;;;;5066719;28;19981;-78
2021/09/03 14:03:44;;;;;;;;;;;19.60;99.90;;;;;;5067502;28;20011;-80
2021/09/03 14:06:09;;;;;;;;;;;19.60;99.90;;;;;;5085219;28;19916;-75
2021/09/03 14:08:37;;;;;;;;;;;19.50;99.90;;;;;;5089750;28;19920;-80
2021/09/03 14:11:03;;;;;;;;;;;19.50;99.90;;;;;;5086774;28;19928;-78
2021/09/03 14:13:28;;;;;;;;;;;19.40;99.90;;;;;;5071787;28;19966;-75
2021/09/03 14:15:54;;;;;;;;;;;19.30;99.90;;;;;;5088200;28;19923;-80